首页
METAR-TAF:

METAR-TAF

机场 :

Monticello Municipal Airport/Ellis Field

Monticello, 阿肯色州, 美国

纬度: 33-38-18N, 经度: 091-45-04W, 海拔: 82米

当前天气观测

该预报发布于23分钟前的20:53 UTC
风速4节,风向多变
温度 17°C
湿度 27%
气压 1030 hPa
能見度: 16.1公里
天空无云

METAR: KLLQ 072053Z AUTO VRB04KT 10SM CLR 17/M02 A3041 RMK AO2 SLP297 T01671017 56022

时间: 15:16 (21:16 UTC)

预报

该预报发布于3小时和56分钟前的17:20 UTC
预报有效从07日的 18点(UTC)到 08日的 18点(UTC)
风速6节,风向东转东南
能見度: 10公里
散云层高于25000英尺
从 08日的 0100点(UTC)
风速3节,风向多变
能見度: 10公里
散云层高于25000英尺
从 08日的 1600点(UTC)
风速8节,风向
能見度: 10公里
天空无云

TAF: KLLQ 071720Z 0718/0818 12006KT P6SM SCT250 FM080100 VRB03KT P6SM SCT250 FM081600 17008KT P6SM SKC

超过4000个机场的气象观测和天气预报(METAR&TAF报告)。

可查询的气象台以黄色和红色小点在地图上表示。

将鼠标移到小点上方,可查看气象台名称。

然后点击查看天气观测和预报。

如需切换地图:点击带黑十字的绿色按钮放大地图;点击带横线的绿色按钮缩小地图;或者点击绿色箭头查看邻近地区的地图。


METAR-TAF: